Weather observations for the past three days for
Southland Field
Imperial (Metric)
Date Time (cdt) Wind (mph) Vis. (mi.) Weather Sky Cond. Temperature (ºF) Relative Humidity Wind Chill (°F) Heat Index (°F) Pressure Precipitation (in)
Air Dwpt 6 hour altimeter (in) sea level (mb) 1 hr 3 hr 6 hr
Max. Min.
07 13:55 N 10 10.00 Fair CLR 75 63.7 68% 77 29.98 0.0
07 13:35 N 8 10.00 Fair CLR 75 63.9 68% 77 29.98 0.0
07 13:15 N 8 G 16 10.00 Fair CLR 74.1 63.1 69% 29.98 0.0
07 12:55 N 9 10.00 Partly Cloudy SCT020 74.1 63.1 74.3 61.9 69% 29.98 0.0
07 12:35 N 9 10.00 Fair CLR 73.2 63.1 71% 29.99 0.0
07 12:15 NE 8 10.00 Partly Cloudy SCT016 SCT044 72.9 63.5 73% 29.99 0.0
07 11:55 N 6 10.00 Mostly Cloudy SCT016 BKN042 70.9 61.9 73% 30.01 0.0
07 11:35 N 12 10.00 Partly Cloudy SCT014 SCT038 69.8 61.3 75% 29.99 0.0
07 11:15 N 12 10.00 Mostly Cloudy BKN012 BKN055 68.4 61.2 78% 30 0.0
07 10:55 N 10 10.00 Overcast OVC010 66.7 60.4 80% 30.01 0.0
07 10:35 N 7 10.00 Overcast OVC010 65.3 60.1 83% 30 0.0
07 10:15 N 9 10.00 Overcast OVC010 63.9 59.2 85% 30.01 0.0
07 09:55 N 8 10.00 Overcast OVC010 63.5 59.2 86% 30.01 0.0
07 09:35 N 8 10.00 Overcast OVC008 63.1 59 86% 30.02 0.0
07 09:15 N 8 10.00 Overcast OVC008 63.3 59.2 86% 30.01 0.0
07 08:55 N 9 10.00 Overcast OVC008 62.8 59.2 88% 30.01 0.0
07 08:35 N 9 10.00 Overcast OVC008 62.1 59 90% 30 0.0
07 08:15 N 9 10.00 Overcast OVC008 62.2 59 89% 30 0.0
07 07:55 N 5 10.00 Overcast OVC008 62.6 59.7 90% 29.99 0.0
07 07:35 N 6 10.00 Overcast OVC006 61.9 59.2 91% 29.98 0.0
07 07:15 N 5 10.00 Overcast OVC006 62.2 59.9 92% 29.98 0.0
07 06:55 N 9 10.00 Overcast OVC006 62.1 59.9 78.1 62.1 93% 29.96 0.0 0.02
07 06:35 N 7 10.00 Overcast OVC006 62.2 60.3 93% 29.96 0.0
07 06:15 N 8 G 16 10.00 Overcast OVC004 62.2 60.4 94% 29.95 0.0
07 05:55 N 10 7.00 Overcast OVC004 62.8 61.3 95% 29.96 0.0
07 05:35 N 13 10.00 Overcast OVC004 63 61.7 96% 29.95 0.0
07 05:15 N 10 G 16 10.00 Overcast OVC004 63.1 62.2 97% 29.94 0.0
07 04:55 N 12 7.00 Overcast OVC004 63.7 63 98% 29.93 0.0
07 04:35 N 9 0.00 NULL NULL 0 0 0% 29.93 0.0
07 04:15 N 10 G 16 7.00 Overcast OVC003 65.3 65.3 100% 29.92 0.0
07 03:55 N 8 7.00 Overcast OVC003 65.8 65.8 100% 29.92 0.0 0.02
07 03:35 N 9 7.00 Overcast OVC003 66.4 66.4 100% 29.91 0.0
07 03:15 N 12 7.00 Overcast OVC005 67.5 66.9 98% 29.9 0.0
07 02:55 N 13 G 16 10.00 Overcast OVC005 68.4 67.8 98% 29.91 0.0 0.01
07 02:35 N 12 10.00 Overcast OVC005 69.1 68 96% 29.9 0.0 0.01
07 02:15 N 9 7.00 Light Drizzle OVC005 70.7 69.4 96% 29.9 0.0 0.01
07 01:55 N 13 5.00 Rain OVC005 72.5 70.7 94% 29.9 0.0 0.01
07 01:35 N 12 G 16 5.00 Fog/Mist OVC005 75.2 73 93% 74 29.89 0.0
07 01:15 Calm 5.00 Rain OVC005 78.1 77.4 98% 81 29.89 0.0
07 00:55 SW 3 5.00 Fog/Mist OVC007 77.9 77 80.6 77.9 97% 80 29.89 0.0
07 00:35 SW 3 5.00 Fog/Mist OVC007 78.1 77 97% 81 29.9 0.0
07 00:15 Calm 7.00 Overcast OVC007 78.1 76.6 95% 81 29.89 0.0
06 23:55 Calm 7.00 Overcast OVC007 77.9 76.5 95% 80 29.89 0.0
06 23:35 SW 3 7.00 Overcast OVC007 78.1 76.3 94% 81 29.88 0.0
06 23:15 S 3 7.00 Overcast OVC007 78.3 76.1 93% 81 29.88 0.0
06 22:55 S 5 7.00 Overcast OVC007 78.8 76.3 92% 83 29.88 0.0
06 22:35 S 3 7.00 Overcast OVC007 78.8 76.3 92% 83 29.88 0.0
06 22:15 S 6 7.00 Overcast OVC007 78.8 76.1 91% 83 29.87 0.0
06 21:55 S 7 7.00 Overcast OVC007 78.8 76.1 91% 83 29.86 0.0
06 21:35 S 5 7.00 Overcast OVC007 78.8 76.1 91% 83 29.86 0.0
06 21:15 S 5 7.00 Overcast OVC009 78.8 76.1 91% 83 29.86 0.0
06 20:55 S 6 7.00 Overcast OVC009 79 76.1 91% 83 29.85 0.0
06 20:35 S 5 7.00 Overcast OVC009 79.2 76.1 90% 83 29.84 0.0
06 20:15 S 8 7.00 Overcast OVC009 79 75.9 90% 83 29.83 0.0
06 19:55 S 7 10.00 Overcast OVC011 79.3 75.7 89% 84 29.83 0.0
06 19:35 S 10 10.00 Overcast OVC011 79.7 75.6 87% 84 29.82 0.0
06 19:15 S 12 10.00 Overcast OVC011 80.1 75.6 86% 85 29.82 0.0
06 18:55 SE 13 G 18 10.00 Overcast BKN011 BKN019 OVC025 80.4 75.7 86 80.4 86% 86 29.82 0.0
06 18:35 S 14 10.00 Overcast BKN015 OVC027 80.8 75.7 85% 87 29.81 0.0
06 18:15 S 15 10.00 Overcast OVC016 81.5 75.6 82% 88 29.81 0.0
06 17:55 SE 15 10.00 Overcast OVC014 81.7 75.4 81% 88 29.81 0.0
06 17:35 SE 14 10.00 Overcast OVC014 82.2 75.4 80% 89 29.81 0.0
06 17:15 S 14 10.00 Mostly Cloudy BKN014 83.5 75.6 77% 92 29.81 0.0
06 16:55 S 14 10.00 Partly Cloudy SCT016 84.4 75.6 75% 93 29.81 0.0
06 16:35 SE 13 G 17 10.00 Mostly Cloudy BKN018 84.2 75.7 76% 93 29.82 0.0
06 16:15 SE 14 10.00 Partly Cloudy SCT018 86 76.3 73% 96 29.82 0.0
06 15:55 SE 13 10.00 Partly Cloudy SCT050 SCT060 84.7 75 73% 93 29.82 0.0
06 15:35 S 8 10.00 Overcast SCT016 BKN050 OVC060 84.2 75.4 75% 93 29.83 0.0
06 15:15 S 9 10.00 Overcast BKN016 OVC060 83.3 75.2 77% 91 29.84 0.0
06 14:55 SE 16 10.00 Overcast OVC016 84.2 75.6 75% 93 29.84 0.0
06 14:35 SE 15 G 21 10.00 Mostly Cloudy SCT016 BKN047 BKN065 84.2 75.7 76% 93 29.84 0.0
06 14:15 S 13 10.00 Partly Cloudy SCT047 SCT050 85.6 75.6 72% 95 29.85 0.0
06 13:55 S 12 10.00 Mostly Cloudy SCT016 BKN045 BKN055 83.5 74.7 75% 91 29.87 0.0
06 13:35 S 8 10.00 Mostly Cloudy SCT016 BKN041 BKN047 83.3 75.9 79% 92 29.87 0.0
06 13:15 S 10 10.00 Mostly Cloudy BKN018 SCT022 BKN041 82.9 75.2 78% 90 29.88 0.0
06 12:55 S 9 10.00 Mostly Cloudy BKN018 BKN043 83.5 75.2 85.1 76.3 76% 91 29.88 0.0
06 12:35 S 12 G 16 10.00 Mostly Cloudy SCT018 SCT033 BKN043 83.7 74.5 74% 91 29.89 0.0
06 12:15 S 13 10.00 Mostly Cloudy BKN018 BKN033 BKN041 84.4 75.2 74% 93 29.89 0.0
06 11:55 S 13 G 16 10.00 Overcast OVC018 83.5 75.2 76% 91 29.89 0.0
06 11:35 S 13 10.00 Overcast OVC014 82.4 75.6 80% 90 29.9 0.0
06 11:15 SE 9 10.00 Overcast OVC014 81.1 75 82% 87 29.9 0.0
06 10:55 SE 9 10.00 Overcast OVC014 80.8 75.2 83% 87 29.89 0.0
06 10:35 SE 13 10.00 Overcast OVC012 80.6 75.2 84% 86 29.88 0.0
06 10:15 SE 12 10.00 Overcast OVC010 80.1 75 85% 85 29.88 0.0
06 09:55 SE 13 10.00 Overcast BKN010 OVC033 80.1 75.2 85% 85 29.87 0.0
06 09:35 S 13 G 16 10.00 Overcast BKN008 OVC033 79.5 75.4 87% 84 29.86 0.0
06 09:15 SE 13 G 18 10.00 Overcast OVC008 78.6 75.2 89% 82 29.87 0.0
06 08:55 S 9 7.00 Overcast OVC008 78.1 75.2 91% 81 29.87 0.0
06 08:35 SE 9 7.00 Overcast BKN008 BKN036 OVC050 77.9 74.8 90% 80 29.87 0.0
06 08:15 S 9 7.00 Overcast BKN006 OVC036 77.5 75 92% 79 29.87 0.0
06 07:55 S 8 10.00 Overcast OVC006 77.2 74.8 93% 78 29.86 0.0
06 07:35 SE 10 7.00 Overcast OVC008 77.2 74.8 93% 78 29.86 0.0
06 07:15 SE 9 7.00 Overcast BKN008 OVC015 76.6 74.5 93% 77 29.85 0.0
06 06:55 SE 7 7.00 Overcast BKN008 BKN013 OVC044 76.3 74.3 76.5 76.1 94% 76 29.85 0.0
06 06:35 S 6 7.00 Overcast BKN013 BKN021 OVC044 76.3 73.9 93% 76 29.84 0.0
06 06:15 SE 9 10.00 Overcast SCT008 BKN013 OVC048 76.3 73.8 92% 76 29.84 0.0
06 05:55 S 10 10.00 Overcast SCT008 BKN013 OVC048 76.3 73.8 92% 76 29.83 0.0
06 05:35 S 8 10.00 Overcast SCT008 BKN013 OVC038 76.3 73.8 92% 76 29.83 0.0
06 05:15 SE 9 10.00 Overcast SCT007 BKN013 OVC043 76.1 73.6 92% 76 29.83 0.0
06 04:55 SE 8 10.00 Overcast SCT010 BKN015 OVC043 76.3 73.6 91% 76 29.84 0.0
06 04:35 SE 7 10.00 Overcast OVC010 76.1 73.4 91% 76 29.84 0.0
06 04:15 SE 6 10.00 Overcast OVC010 76.1 73.4 91% 76 29.84 0.0
06 03:55 SE 6 10.00 Overcast OVC010 76.1 73.4 91% 76 29.84 0.0
06 03:35 S 5 10.00 Overcast OVC010 76.3 73.4 91% 77 29.85 0.0
06 03:15 S 6 10.00 Overcast OVC010 76.3 73.4 91% 77 29.85 0.0
06 02:55 S 6 10.00 Overcast BKN010 OVC015 76.3 73.2 90% 77 29.85 0.0
06 02:35 S 7 10.00 Overcast BKN010 OVC014 76.1 72.9 90% 76 29.85 0.0
06 02:15 S 9 10.00 Overcast BKN011 OVC020 76.3 72.9 89% 77 29.85 0.0
06 01:55 S 6 10.00 Overcast BKN011 OVC023 76.1 72.7 89% 76 29.85 0.0
06 01:15 S 6 10.00 Overcast BKN013 BKN020 OVC025 76.1 72.5 89% 76 29.86 0.0
06 00:55 S 10 10.00 Overcast BKN011 BKN019 OVC026 76.3 72.5 77.9 76.1 88% 77 29.86 0.0
06 00:35 S 12 10.00 Overcast BKN011 BKN018 OVC024 76.3 72.5 88% 77 29.86 0.0
06 00:15 S 9 10.00 Overcast BKN011 BKN018 OVC026 76.3 72.5 88% 77 29.86 0.0
05 23:55 S 10 10.00 Overcast SCT010 BKN016 OVC026 76.3 72.5 88% 77 29.86 0.0
05 23:35 S 10 10.00 Overcast SCT011 OVC021 76.1 72.1 88% 76 29.86 0.0
05 23:15 S 13 10.00 Overcast BKN012 OVC021 76.1 72.5 89% 76 29.86 0.0
05 22:55 S 10 10.00 Overcast BKN010 OVC021 76.1 72.5 89% 76 29.86 0.0
05 22:35 S 9 10.00 Overcast OVC010 76.3 72.7 89% 77 29.86 0.0
05 22:15 S 10 10.00 Overcast BKN010 OVC016 76.3 72.7 89% 77 29.85 0.0
05 21:55 S 10 10.00 Overcast OVC014 76.5 72.5 88% 77 29.84 0.0
05 21:35 S 12 10.00 Overcast OVC014 76.5 72.5 88% 77 29.83 0.0
05 21:15 SE 10 10.00 Mostly Cloudy BKN014 BKN042 76.1 72.1 88% 76 29.83 0.0
05 20:55 S 12 10.00 Mostly Cloudy BKN042 76.3 72.1 87% 77 29.82 0.0
05 20:35 S 13 10.00 Overcast SCT014 SCT036 OVC044 76.3 72.1 87% 77 29.82 0.0
05 20:15 S 13 10.00 Overcast SCT016 SCT030 OVC038 76.8 72 85% 78 29.81 0.0
05 19:55 S 13 10.00 Overcast BKN017 BKN034 OVC043 76.8 72 85% 78 29.81 0.0
05 19:35 S 13 G 17 10.00 Overcast BKN015 BKN023 OVC043 77.2 72.1 85% 79 29.8 0.0
05 19:15 S 13 10.00 Overcast SCT015 BKN032 OVC041 77.2 72.1 85% 79 29.81 0.0
05 18:55 S 15 G 22 10.00 Overcast SCT015 BKN035 OVC041 78.1 71.8 82.6 77.7 81% 80 29.81 0.0
05 18:35 S 15 10.00 Overcast SCT015 BKN034 OVC048 77.7 72.3 84% 80 29.81 0.0
05 18:15 S 15 G 18 10.00 Overcast SCT017 BKN038 OVC048 79.2 72 79% 82 29.81 0.0
05 17:55 S 16 10.00 Overcast SCT017 BKN038 OVC045 79 72 79% 82 29.81 0.0
05 17:35 S 15 G 20 10.00 Overcast BKN017 BKN025 OVC035 79.5 72.5 79% 83 29.81 0.0
05 17:15 S 13 G 21 10.00 Overcast SCT017 BKN032 OVC045 80.1 72 76% 84 29.81 0.0
05 16:55 S 16 G 22 10.00 Overcast SCT017 SCT025 OVC047 81.3 72.5 75% 86 29.81 0.0
05 16:35 S 16 G 20 10.00 Overcast BKN018 BKN025 OVC047 81.3 72.9 76% 86 29.82 0.0
05 16:15 S 16 G 21 10.00 Overcast BKN019 BKN026 OVC048 80.2 72.1 76% 84 29.83 0.0
05 15:55 S 13 10.00 Overcast BKN019 OVC024 79.7 71.6 76% 83 29.84 0.0
05 15:35 S 18 10.00 Overcast BKN019 BKN024 OVC030 80.1 71.8 76% 84 29.84 0.0
05 15:15 S 16 G 23 10.00 Overcast BKN018 OVC024 80.6 71.6 74% 85 29.84 0.0
05 14:55 S 17 10.00 Overcast BKN020 OVC026 80.1 70.9 74% 84 29.84 0.0
05 14:35 S 18 G 25 10.00 Overcast BKN022 OVC026 81.5 70.7 70% 85 29.85 0.0
05 14:15 S 18 G 23 10.00 Overcast BKN022 BKN028 OVC035 82.2 71.1 69% 87 29.85 0.0
05 13:55 S 16 G 24 10.00 Overcast BKN022 OVC030 81.3 70.5 70% 85 29.85 0.0
05 13:35 S 16 G 23 10.00 Overcast BKN022 OVC028 80.8 70.7 72% 84 29.86 0.0
05 13:15 S 21 G 25 10.00 Overcast and Breezy BKN024 OVC028 82 70.3 68% 86 29.86 0.0
05 12:55 S 17 G 24 10.00 Overcast OVC024 82 70.7 82 72.9 69% 86 29.86 0.0
05 12:35 S 17 G 23 10.00 Overcast BKN022 OVC031 80.6 70.5 71% 84 29.86 0.0
05 12:15 S 15 G 24 10.00 Overcast OVC024 80.1 69.8 71% 83 29.87 0.0
05 11:55 S 20 G 23 10.00 Overcast BKN023 BKN027 OVC033 80.6 70 70% 84 29.87 0.0
05 11:35 S 15 G 22 10.00 Overcast BKN023 OVC029 80.6 69.6 69% 84 29.87 0.0
05 11:15 S 18 G 23 10.00 Overcast OVC025 81.1 69.4 68% 84 29.86 0.0
05 10:55 S 16 G 23 10.00 Overcast BKN021 OVC027 81.5 69.8 68% 85 29.86 0.0
05 10:35 S 16 10.00 Overcast BKN021 OVC027 79.7 69.3 71% 83 29.87 0.0
05 10:15 S 14 G 21 10.00 Overcast BKN023 OVC031 78.8 69.1 72% 81 29.87 0.0
05 09:55 S 15 G 18 10.00 Overcast BKN023 OVC031 78.4 68.9 73% 81 29.87 0.0
05 09:35 S 15 G 20 10.00 Overcast SCT020 BKN028 OVC033 78.1 68.9 73% 80 29.87 0.0
05 09:15 S 13 10.00 Overcast SCT020 SCT025 OVC031 77.4 68.9 75% 79 29.87 0.0
05 08:55 S 15 G 20 10.00 Overcast SCT018 OVC031 76.5 68.4 76% 78 29.86 0.0
05 08:15 S 12 10.00 Overcast OVC033 75.6 68.2 78% 77 29.86 0.0
05 07:55 S 12 10.00 Overcast SCT020 OVC035 75.4 68.2 78% 76 29.86 0.0
05 07:35 S 8 10.00 Overcast SCT020 OVC033 74.1 68 81% 29.85 0.0
05 07:15 S 8 10.00 Mostly Cloudy SCT024 BKN033 BKN048 73.6 68 83% 29.85 0.0
05 06:55 S 8 10.00 Mostly Cloudy SCT020 SCT027 BKN040 72.9 67.3 73 69.3 83% 29.84 0.0
05 06:35 S 8 10.00 Overcast BKN022 OVC029 72.9 67.3 83% 29.84 0.0
05 06:15 S 6 10.00 Overcast SCT025 BKN031 OVC038 72.9 67.1 82% 29.84 0.0
05 05:55 S 8 10.00 Overcast OVC037 72.9 66.7 81% 29.84 0.0
05 05:35 S 8 10.00 Overcast SCT023 SCT030 OVC039 72.7 66.4 81% 29.84 0.0
05 05:15 S 8 10.00 Overcast SCT030 OVC037 72.7 66.2 80% 29.85 0.0
05 04:55 S 8 10.00 Overcast OVC035 72.3 66 81% 29.85 0.0
05 04:35 S 7 10.00 Overcast OVC035 72 65.8 81% 29.85 0.0
05 04:15 S 6 10.00 Overcast SCT030 OVC035 71.6 65.5 81% 29.86 0.0
05 03:55 S 7 10.00 Mostly Cloudy SCT026 BKN035 71.2 64.9 81% 29.86 0.0
05 03:35 S 6 10.00 Partly Cloudy SCT027 SCT033 SCT039 70.7 64.9 82% 29.85 0.0
05 03:15 S 6 10.00 Partly Cloudy SCT024 SCT035 70.2 64.8 83% 29.86 0.0
05 02:55 S 8 10.00 Partly Cloudy SCT024 SCT031 70.3 64.6 82% 29.85 0.0
05 02:35 S 7 10.00 Partly Cloudy SCT033 69.8 64.4 83% 29.86 0.0
05 02:15 S 8 0.00 NULL NULL 0 0 0% 29.86 0.0
05 01:55 S 8 10.00 Fair CLR 69.3 63.5 82% 29.86 0.0
05 01:35 S 7 10.00 Fair CLR 69.4 63.5 82% 29.87 0.0
05 01:15 S 7 10.00 Partly Cloudy SCT034 69.8 63.5 81% 29.88 0.0
05 00:55 S 7 10.00 Mostly Cloudy BKN034 70 63.5 73.9 68.9 80% 29.88 0.0
05 00:35 S 7 10.00 Mostly Cloudy BKN036 70.3 63.5 79% 29.89 0.0
04 23:55 S 7 10.00 Partly Cloudy SCT036 69.1 62.8 80% 29.9 0.0
04 23:35 S 7 10.00 Partly Cloudy SCT037 69.6 62.6 78% 29.9 0.0
04 23:15 S 8 10.00 Mostly Cloudy BKN037 70 62.8 78% 29.9 0.0
04 22:55 S 7 10.00 Partly Cloudy SCT037 68.9 62.6 80% 29.91 0.0
04 22:35 S 7 10.00 Partly Cloudy SCT035 68.9 62.6 80% 29.91 0.0
04 22:15 S 7 10.00 Partly Cloudy SCT035 69.3 62.4 79% 29.91 0.0
04 21:55 S 8 10.00 Fair CLR 69.4 62.6 79% 29.91 0.0
04 21:35 S 7 10.00 Partly Cloudy SCT031 69.4 62.6 79% 29.91 0.0
04 21:15 S 7 10.00 Partly Cloudy SCT033 70.2 62.6 77% 29.9 0.0
04 20:55 S 8 10.00 Fair CLR 70.2 62.1 76% 29.89 0.0
04 20:35 S 8 10.00 Fair CLR 70.3 62.2 76% 29.89 0.0
04 20:15 S 8 10.00 Fair CLR 71.1 61.7 72% 29.89 0.0
04 19:55 S 10 10.00 Partly Cloudy SCT030 SCT037 SCT046 72.1 61.7 70% 29.9 0.0
04 19:35 SE 10 10.00 Overcast BKN032 OVC044 73.4 61.7 67% 29.9 0.0
04 19:15 SE 14 10.00 Overcast SCT032 OVC044 73.8 61.2 65% 29.9 0.0
04 18:55 SE 12 10.00 Mostly Cloudy SCT032 BKN044 73.8 60.8 80.1 73.8 64% 29.92 0.0
04 18:35 SE 14 10.00 Partly Cloudy SCT032 SCT041 74.7 60.3 61% 29.92 0.0
04 18:15 SE 15 10.00 Mostly Cloudy BKN034 BKN042 75.4 60.1 59% 78 29.92 0.0
04 17:55 SE 14 G 21 10.00 Mostly Cloudy BKN034 BKN040 BKN048 77.4 59.9 55% 79 29.93 0.0
04 17:35 SE 15 G 21 10.00 Mostly Cloudy BKN036 BKN045 77.7 60.1 55% 79 29.93 0.0
04 17:15 S 12 G 22 10.00 Mostly Cloudy BKN036 BKN045 77.5 59.2 53% 79 29.93 0.0
04 16:55 SE 16 G 20 10.00 Mostly Cloudy SCT036 BKN043 78.1 60.1 54% 79 29.94 0.0
04 16:35 SE 16 G 20 10.00 Partly Cloudy SCT036 SCT043 SCT049 79.2 59.7 51% 80 29.94 0.0
04 16:15 S 14 G 18 10.00 Partly Cloudy SCT038 SCT049 79.7 58.3 48% 80 29.95 0.0
04 15:55 S 15 G 18 10.00 Partly Cloudy SCT038 SCT046 79 58.6 50% 80 29.96 0.0
04 15:35 S 15 G 18 10.00 Partly Cloudy SCT040 SCT050 79.7 58.6 49% 80 29.96 0.0
04 15:15 S 12 G 17 10.00 Mostly Cloudy SCT042 BKN050 79.2 57.7 48% 80 29.98 0.0
04 14:55 S 13 10.00 Mostly Cloudy BKN040 BKN047 79.3 57.9 48% 80 29.98 0.0
04 14:35 S 13 G 18 10.00 Mostly Cloudy BKN040 BKN048 79.5 57.7 47% 80 29.99 0.0
04 14:15 S 9 G 17 10.00 NULL NULL 79.7 57 46% 80 29.99 0.0
Date Time (cdt) Wind (mph) Vis. (mi.) Weather Sky Cond. Air Dwpt Max. Min. Relative Humidity Wind Chill (°F) Heat Index (°F) altimeter (in) sea level (mb) 1 hr 3 hr 6 hr
6 hour
Temperature (ºF) Pressure Precipitation (in)